Flight Track Log - Related Links

Times and Time Zones

All times are in EDT time to prevent confusion due to time zone crossing. See the TAM3774 flight status page for this flight to view local times or setup timezone preferences in your user account.

Time Position Orientation Groundspeed Altitude Reporting Facility
EDT Latitude Longitude Course Direction KTS MPH feet Rate Location/Type
Wed 08:00:39 PM -23.6200 -46.6610 360° North  Level FlightAware ADS-B
Wed 08:02:16 PM -23.6450 -46.6450 151° Southeast 147 169 3,300 2,079 Climbing FlightAware ADS-B
Wed 08:02:20 PM -23.6480 -46.6450 180° South 145 167 3,500 1,600 Climbing FlightAware ADS-B
Wed 08:02:46 PM -23.6620 -46.6580 220° Southwest 180 207 4,100 1,161 Climbing FlightAware ADS-B
Wed 08:02:51 PM -23.6620 -46.6620 270° West 188 216 4,100 1,200 Level FlightAware ADS-B
Wed 08:03:11 PM -23.6600 -46.6820 276° West 209 241 4,600 1,733 Climbing FlightAware ADS-B
Wed 08:03:36 PM -23.6560 -46.7080 280° West 220 253 5,400 1,333 Climbing FlightAware ADS-B
Wed 08:03:56 PM -23.6530 -46.7310 278° West 228 262 5,600 300 Climbing FlightAware ADS-B
Wed 08:04:16 PM -23.6590 -46.7550 255° West 253 291 5,600  Level FlightAware ADS-B
Wed 08:04:36 PM -23.6680 -46.7800 249° West 276 318 5,600 400 Level FlightAware ADS-B
Wed 08:05:01 PM -23.6800 -46.8130 248° West 275 316 5,900 1,500 Climbing FlightAware ADS-B
Wed 08:05:16 PM -23.6860 -46.8330 252° West 278 320 6,600 3,150 Climbing FlightAware ADS-B
Wed 08:05:41 PM -23.6930 -46.8680 258° West 286 329 8,000 3,200 Climbing FlightAware ADS-B
Wed 08:05:46 PM -23.6930 -46.8730 270° West 287 330 8,200 2,800 Climbing FlightAware ADS-B
Wed 08:05:56 PM -23.6890 -46.8880 286° West 288 331 8,700 3,000 Climbing FlightAware ADS-B
Wed 08:06:16 PM -23.6790 -46.9150 292° West 292 336 9,700 2,400 Climbing FlightAware ADS-B
Wed 08:06:51 PM -23.6590 -46.9660 293° West 322 371 10,900 1,886 Climbing FlightAware ADS-B
Wed 08:07:26 PM -23.6390 -47.0210 292° West 352 405 11,900 2,366 Climbing FlightAware ADS-B
Wed 08:08:02 PM -23.6180 -47.0790 292° West 351 404 13,700 2,113 Climbing FlightAware ADS-B
Wed 08:08:37 PM -23.5960 -47.1380 292° West 360 414 14,400 1,913 Climbing FlightAware ADS-B
Wed 08:09:11 PM -23.5740 -47.1980 292° West 366 421 15,900 2,261 Climbing FlightAware ADS-B
Wed 08:09:46 PM -23.5520 -47.2590 291° West 384 442 17,000 1,543 Climbing FlightAware ADS-B
Wed 08:10:21 PM -23.5270 -47.3250 292° West 405 466 17,700 1,068 Climbing FlightAware ADS-B
Wed 08:10:59 PM -23.5030 -47.3930 291° West 427 491 18,300 1,481 Climbing FlightAware ADS-B
Wed 08:11:38 PM -23.4760 -47.4820 288° West 439 505 19,600 1,680 Climbing FlightAware ADS-B
Wed 08:12:14 PM -23.4530 -47.5560 289° West 441 507 20,400 1,859 Climbing FlightAware ADS-B
Wed 08:12:49 PM -23.4300 -47.6290 289° West 436 502 21,800 3,343 Climbing FlightAware ADS-B
Wed 08:13:24 PM -23.4080 -47.7000 289° West 403 464 24,300 3,514 Climbing FlightAware ADS-B
Wed 08:13:59 PM -23.3880 -47.7650 289° West 390 449 25,900 2,113 Climbing FlightAware ADS-B
Wed 08:14:35 PM -23.3680 -47.8320 288° West 398 458 26,800 1,594 Climbing FlightAware ADS-B
Wed 08:15:03 PM -23.3500 -47.8880 289° West 400 460 27,600 1,478 Climbing FlightAware ADS-B
Wed 08:15:44 PM -23.3260 -47.9650 289° West 407 468 28,500 1,200 Climbing FlightAware ADS-B
Wed 08:16:18 PM -23.3050 -48.0330 289° West 413 475 29,100 1,629 Climbing FlightAware ADS-B
Wed 08:16:54 PM -23.2840 -48.1030 288° West 402 463 30,400 2,314 Climbing FlightAware ADS-B
Wed 08:17:28 PM -23.2640 -48.1670 289° West 378 435 31,800 1,477 Climbing FlightAware ADS-B
Wed 08:17:59 PM -23.2470 -48.2210 289° West 371 427 32,000 771 Climbing FlightAware ADS-B
Wed 08:18:38 PM -23.2250 -48.2910 289° West 369 425 32,700 1,662 Climbing FlightAware ADS-B
Wed 08:19:04 PM -23.2110 -48.3350 289° West 354 407 33,800 1,869 Climbing FlightAware ADS-B
Wed 08:19:39 PM -23.1920 -48.3940 289° West 351 404 34,600 1,200 Climbing FlightAware ADS-B
Wed 08:20:14 PM -23.1740 -48.4510 289° West 350 403 35,200 1,120 Climbing FlightAware ADS-B
Wed 08:20:54 PM -23.1530 -48.5190 289° West 348 400 36,000 1,014 Climbing FlightAware ADS-B
Wed 08:21:25 PM -23.1370 -48.5690 289° West 348 400 36,400 909 Climbing FlightAware ADS-B
Wed 08:22:00 PM -23.1190 -48.6280 288° West 347 399 37,000 960 Climbing FlightAware ADS-B
Wed 08:22:40 PM -23.0980 -48.6920 290° West 343 395 37,600 870 Climbing FlightAware ADS-B
Wed 08:23:09 PM -23.0830 -48.7410 288° West 343 395 38,000 343 Climbing FlightAware ADS-B
Wed 08:23:50 PM -23.0640 -48.8030 288° West 344 396 38,000  Level FlightAware ADS-B
Wed 08:24:19 PM -23.0470 -48.8550 290° West 344 396 38,000  Level FlightAware ADS-B
Wed 08:24:55 PM -23.0290 -48.9120 289° West 345 397 38,000  Level FlightAware ADS-B
Wed 08:25:35 PM -23.0090 -48.9760 289° West 345 397 38,000  Level FlightAware ADS-B
Wed 08:26:10 PM -22.9910 -49.0320 289° West 346 398 38,000  Level FlightAware ADS-B
Wed 08:26:50 PM -22.9690 -49.1010 289° West 346 398 38,000  Level FlightAware ADS-B
Wed 08:27:25 PM -22.9510 -49.1570 289° West 346 398 38,000  Level FlightAware ADS-B
Wed 08:28:00 PM -22.9310 -49.2160 290° West 347 399 38,000  Level FlightAware ADS-B
Wed 08:28:35 PM -22.9110 -49.2750 290° West 346 398 38,000  Level FlightAware ADS-B
Wed 08:29:11 PM -22.8910 -49.3330 291° West 346 398 38,000  Level FlightAware ADS-B
Wed 08:29:43 PM -22.8740 -49.3850 290° West 347 399 38,000  Level FlightAware ADS-B
Wed 08:30:19 PM -22.8540 -49.4450 290° West 347 399 38,000  Level FlightAware ADS-B
Wed 08:30:55 PM -22.8340 -49.5050 290° West 347 399 38,000  Level FlightAware ADS-B
Wed 08:31:31 PM -22.8150 -49.5620 290° West 347 399 38,000  Level FlightAware ADS-B
Wed 08:32:03 PM -22.7970 -49.6140 291° West 347 399 38,000  Level FlightAware ADS-B
Wed 08:32:39 PM -22.7770 -49.6740 290° West 345 397 38,000  Level FlightAware ADS-B
Wed 08:33:15 PM -22.7570 -49.7320 290° West 346 398 38,000  Level FlightAware ADS-B
Wed 08:33:49 PM -22.7390 -49.7870 290° West 346 398 38,000  Level FlightAware ADS-B
Wed 08:34:25 PM -22.7190 -49.8460 290° West 347 399 38,000  Level FlightAware ADS-B
Wed 08:35:01 PM -22.6990 -49.9030 291° West 347 399 38,000  Level FlightAware ADS-B
Wed 08:35:35 PM -22.6800 -49.9600 290° West 347 399 38,000  Level FlightAware ADS-B
Wed 08:36:11 PM -22.6600 -50.0180 290° West 347 399 38,000  Level FlightAware ADS-B
Wed 08:36:43 PM -22.6420 -50.0710 290° West 347 399 38,000  Level FlightAware ADS-B
Wed 08:37:20 PM -22.6220 -50.1290 290° West 347 399 38,000  Level FlightAware ADS-B
Wed 08:37:53 PM -22.6030 -50.1840 291° West 347 399 38,000  Level FlightAware ADS-B
Wed 08:38:31 PM -22.5820 -50.2450 290° West 347 399 38,000  Level FlightAware ADS-B
Wed 08:39:03 PM -22.5640 -50.2980 290° West 347 399 38,000  Level FlightAware ADS-B
Wed 08:39:40 PM -22.5440 -50.3580 290° West 347 399 38,000  Level FlightAware ADS-B
Wed 08:40:15 PM -22.5240 -50.4150 291° West 348 400 38,000  Level FlightAware ADS-B
Wed 08:40:51 PM -22.5040 -50.4740 290° West 349 402 38,000  Level FlightAware ADS-B
Wed 08:41:23 PM -22.4860 -50.5270 290° West 348 400 38,000  Level FlightAware ADS-B
Wed 08:41:59 PM -22.4660 -50.5850 290° West 349 402 38,000  Level FlightAware ADS-B
Wed 08:42:36 PM -22.4450 -50.6440 291° West 349 402 38,000  Level FlightAware ADS-B
Wed 08:43:11 PM -22.4250 -50.7010 291° West 349 402 38,000  Level FlightAware ADS-B
Wed 08:43:43 PM -22.4070 -50.7550 290° West 349 402 38,000  Level FlightAware ADS-B
Wed 08:44:20 PM -22.3870 -50.8140 290° West 349 402 38,000  Level FlightAware ADS-B
Wed 08:44:55 PM -22.3660 -50.8730 291° West 349 402 38,000  Level FlightAware ADS-B
Wed 08:45:32 PM -22.3460 -50.9310 290° West 351 404 38,000  Level FlightAware ADS-B
Wed 08:46:05 PM -22.3260 -50.9860 291° West 353 406 38,000  Level FlightAware ADS-B
Wed 08:46:39 PM -22.3060 -51.0440 290° West 353 406 38,000  Level FlightAware ADS-B
Wed 08:47:15 PM -22.2860 -51.1020 290° West 353 406 38,000  Level FlightAware ADS-B
Wed 08:47:51 PM -22.2650 -51.1620 291° West 353 406 38,000  Level FlightAware ADS-B
Wed 08:48:27 PM -22.2440 -51.2220 291° West 353 406 38,000  Level FlightAware ADS-B
Wed 08:48:59 PM -22.2260 -51.2740 290° West 353 406 38,000  Level FlightAware ADS-B
Wed 08:49:35 PM -22.2050 -51.3330 291° West 353 406 38,000  Level FlightAware ADS-B
Wed 08:50:11 PM -22.1840 -51.3930 291° West 355 409 38,000  Level FlightAware ADS-B
Wed 08:50:46 PM -22.1610 -51.4480 294° West 359 413 38,000  Level FlightAware ADS-B
Wed 08:51:19 PM -22.1350 -51.5000 298° West 359 413 38,000  Level FlightAware ADS-B
Wed 08:51:57 PM -22.1030 -51.5610 300° West 360 414 38,000  Level FlightAware ADS-B
Wed 08:52:27 PM -22.0790 -51.6090 298° West 359 413 38,000  Level FlightAware ADS-B
Wed 08:53:05 PM -22.0500 -51.6660 299° West 358 412 38,000  Level FlightAware ADS-B
Wed 08:53:37 PM -22.0230 -51.7170 300° West 358 412 38,000  Level FlightAware ADS-B
Wed 08:54:17 PM -21.9910 -51.7800 299° West 359 413 38,000  Level FlightAware ADS-B
Wed 08:54:49 PM -21.9650 -51.8300 299° West 361 415 38,000  Level FlightAware ADS-B
Wed 08:55:25 PM -21.9360 -51.8860 299° West 362 417 38,000  Level FlightAware ADS-B
Wed 08:56:01 PM -21.9070 -51.9430 299° West 362 417 38,000  Level FlightAware ADS-B
Wed 08:56:33 PM -21.8810 -51.9930 299° West 361 415 38,000  Level FlightAware ADS-B
Wed 08:57:11 PM -21.8500 -52.0530 299° West 362 417 38,000  Level FlightAware ADS-B
Wed 08:57:43 PM -21.8240 -52.1030 299° West 362 417 38,000  Level FlightAware ADS-B
Wed 08:58:17 PM -21.7960 -52.1570 299° West 363 418 38,000  Level FlightAware ADS-B
Wed 08:58:56 PM -21.7650 -52.2170 299° West 364 419 38,000  Level FlightAware ADS-B
Wed 08:59:28 PM -21.7370 -52.2690 300° West 365 420 38,000  Level FlightAware ADS-B
Wed 09:00:04 PM -21.7080 -52.3260 299° West 364 419 38,000  Level FlightAware ADS-B
Wed 09:00:42 PM -21.6760 -52.3860 300° West 365 420 38,000  Level FlightAware ADS-B
Wed 09:01:14 PM -21.6500 -52.4370 299° West 365 420 38,000  Level FlightAware ADS-B
Wed 09:01:48 PM -21.6220 -52.4910 299° West 365 420 38,000  Level FlightAware ADS-B
Wed 09:02:24 PM -21.5920 -52.5480 300° West 365 420 38,000  Level FlightAware ADS-B
Wed 09:03:00 PM -21.5620 -52.6050 299° West 366 421 38,000  Level FlightAware ADS-B
Wed 09:03:37 PM -21.5320 -52.6630 299° West 365 420 38,000  Level FlightAware ADS-B
Wed 09:04:08 PM -21.5060 -52.7120 300° West 366 421 38,000  Level FlightAware ADS-B
Wed 09:04:44 PM -21.4760 -52.7700 299° West 366 421 38,000  Level FlightAware ADS-B
Wed 09:05:20 PM -21.4460 -52.8270 299° West 367 422 38,000  Level FlightAware ADS-B
Wed 09:05:52 PM -21.4190 -52.8770 300° West 367 422 38,000  Level FlightAware ADS-B
Wed 09:06:29 PM -21.3890 -52.9350 299° West 368 423 38,000  Level FlightAware ADS-B
Wed 09:07:04 PM -21.3590 -52.9910 300° West 368 423 38,000  Level FlightAware ADS-B
Wed 09:07:39 PM -21.3300 -53.0460 300° West 368 423 38,000 -771 Level FlightAware ADS-B
Wed 09:08:14 PM -21.3000 -53.1030 299° West 370 426 37,100 -1,917 Descending FlightAware ADS-B
Wed 09:08:51 PM -21.2700 -53.1600 299° West 366 421 35,700 -2,364 Descending FlightAware ADS-B
Wed 09:09:20 PM -21.2460 -53.2050 300° West 364 419 34,500 -2,507 Descending FlightAware ADS-B
Wed 09:09:58 PM -21.2140 -53.2670 299° West 361 415 32,900 -2,432 Descending FlightAware ADS-B
Wed 09:10:34 PM -21.1840 -53.3240 299° West 359 413 31,500 -2,325 Descending FlightAware ADS-B
Wed 09:11:18 PM -21.1500 -53.3910 299° West 357 411 29,800 -2,286 Descending FlightAware ADS-B
Wed 09:11:58 PM -21.1180 -53.4520 299° West 357 411 28,300 -2,351 Descending FlightAware ADS-B
Wed 09:12:32 PM -21.0900 -53.5050 300° West 358 412 26,900 -2,282 Descending FlightAware ADS-B
Wed 09:13:09 PM -21.0610 -53.5630 298° West 358 412 25,600 -2,167 Descending FlightAware ADS-B
Wed 09:13:44 PM -21.0320 -53.6170 300° West 358 412 24,300 -2,087 Descending FlightAware ADS-B
Wed 09:14:18 PM -21.0050 -53.6700 299° West 359 413 23,200 -2,000 Descending FlightAware ADS-B
Wed 09:14:53 PM -20.9770 -53.7230 299° West 359 413 22,000 -2,057 Descending FlightAware ADS-B
Wed 09:15:28 PM -20.9480 -53.7780 299° West 356 410 20,800 -1,833 Descending FlightAware ADS-B
Wed 09:16:05 PM -20.9200 -53.8340 298° West 351 404 19,800 -1,667 Descending FlightAware ADS-B
Wed 09:16:40 PM -20.8930 -53.8890 298° West 347 399 18,800 -1,676 Descending FlightAware ADS-B
Wed 09:17:13 PM -20.8680 -53.9380 299° West 346 398 17,900 -1,676 Descending FlightAware ADS-B
Wed 09:17:48 PM -20.8410 -53.9910 299° West 346 398 16,900 -1,652 Descending FlightAware ADS-B
Wed 09:18:22 PM -20.8140 -54.0430 299° West 347 399 16,000 -1,629 Descending FlightAware ADS-B
Wed 09:18:58 PM -20.7870 -54.0960 299° West 348 400 15,000 -1,667 Descending FlightAware ADS-B
Wed 09:19:34 PM -20.7590 -54.1520 298° West 348 400 14,000 -1,667 Descending FlightAware ADS-B
Wed 09:20:10 PM -20.7320 -54.2050 299° West 347 399 13,000 -1,588 Descending FlightAware ADS-B
Wed 09:20:42 PM -20.7070 -54.2540 299° West 343 395 12,200 -1,588 Descending FlightAware ADS-B
Wed 09:21:18 PM -20.6800 -54.3060 299° West 336 387 11,200 -1,562 Descending FlightAware ADS-B
Wed 09:21:55 PM -20.6530 -54.3580 299° West 328 377 10,300 -1,125 Descending FlightAware ADS-B
Wed 09:22:22 PM -20.6340 -54.3970 297° West 307 353 10,000 -1,024 Descending FlightAware ADS-B
Wed 09:22:36 PM -20.6230 -54.4140 305° West 303 349 9,600 -1,636 Descending FlightAware ADS-B
Wed 09:22:44 PM -20.6150 -54.4220 317° Northwest 302 348 9,400 -1,875 Descending FlightAware ADS-B
Wed 09:22:52 PM -20.6040 -54.4280 333° Northwest 298 343 9,100 -1,500 Descending FlightAware ADS-B
Wed 09:23:04 PM -20.5880 -54.4310 350° North 293 337 8,900 -1,500 Descending FlightAware ADS-B
Wed 09:23:24 PM -20.5620 -54.4330 356° North 293 337 8,300 -2,057 Descending FlightAware ADS-B
Wed 09:23:39 PM -20.5420 -54.4350 355° North 296 341 7,700 -1,667 Descending FlightAware ADS-B
Wed 09:24:00 PM -20.5130 -54.4370 356° North 292 336 7,300 -1,024 Descending FlightAware ADS-B
Wed 09:24:20 PM -20.4860 -54.4390 356° North 279 321 7,000 -667 Descending FlightAware ADS-B
Wed 09:24:36 PM -20.4660 -54.4410 355° North 268 308 6,900 -500 Descending FlightAware ADS-B
Wed 09:24:56 PM -20.4410 -54.4430 356° North 254 292 6,700 -600 Descending FlightAware ADS-B
Wed 09:25:16 PM -20.4190 -54.4450 355° North 241 277 6,500 -714 Descending FlightAware ADS-B
Wed 09:25:38 PM -20.3940 -54.4470 356° North 225 259 6,200 -833 Descending FlightAware ADS-B
Wed 09:25:52 PM -20.3810 -54.4500 348° North 221 254 6,000 -818 Descending FlightAware ADS-B
Wed 09:26:00 PM -20.3750 -54.4540 328° Northwest 220 253 5,900 -750 Descending FlightAware ADS-B
Wed 09:26:08 PM -20.3690 -54.4620 309° West 216 249 5,800 -900 Descending FlightAware ADS-B
Wed 09:26:20 PM -20.3650 -54.4740 290° West 212 244 5,600 -857 Descending FlightAware ADS-B
Wed 09:26:36 PM -20.3590 -54.4880 295° West 207 238 5,400 -1,000 Descending FlightAware ADS-B
Wed 09:26:56 PM -20.3520 -54.5080 290° West 205 236 5,000 -947 Descending FlightAware ADS-B
Wed 09:27:14 PM -20.3460 -54.5250 291° West 206 237 4,800 -333 Descending FlightAware ADS-B
Wed 09:27:32 PM -20.3410 -54.5420 287° West 210 242 4,800 -474 Level FlightAware ADS-B
Wed 09:27:52 PM -20.3490 -54.5610 246° West 212 244 4,500 -1,050 Descending FlightAware ADS-B
Wed 09:28:12 PM -20.3630 -54.5740 221° Southwest 199 229 4,100 -1,200 Descending FlightAware ADS-B
Wed 09:28:32 PM -20.3770 -54.5860 219° Southwest 181 208 3,700 -955 Descending FlightAware ADS-B
Wed 09:28:56 PM -20.3920 -54.5990 219° Southwest 168 193 3,400 -857 Descending FlightAware ADS-B
Wed 09:29:14 PM -20.4020 -54.6090 223° Southwest 157 181 3,100 -833 Descending FlightAware ADS-B
Wed 09:29:32 PM -20.4120 -54.6180 220° Southwest 152 175 2,900 -682 Descending FlightAware ADS-B
Wed 09:29:58 PM -20.4240 -54.6300 223° Southwest 146 168 2,600 -750 Descending FlightAware ADS-B
Wed 09:30:20 PM -20.4360 -54.6410 221° Southwest 142 163 2,300 -714 Descending FlightAware ADS-B
Wed 09:30:40 PM -20.4450 -54.6500 223° Southwest 140 161 2,100 -750 Descending FlightAware ADS-B
Wed 09:31:00 PM -20.4550 -54.6600 223° Southwest 140 161 1,800 -947 Descending FlightAware ADS-B
Wed 09:31:18 PM -20.4640 -54.6680 220° Southwest 139 160 1,500 -1,000 Descending FlightAware ADS-B

Login

Don't have an account? Register now (free) for customized features, flight alerts, and more!